Flugmeteorologie

METAR


Letzte Änderung: 04 Jul 2020 14:50:00
242
SAHU41 HASM 041500
METAR LHSM 041445Z AUTO 34008KT 290V020 9000 NCD 27/10 Q1016 NOSIG

TAF


Letzte Änderung: 04 Jul 2020 14:05:00
240
FCHU99 LHSM 041400
TAF LHSM 041400Z NIL